Time;durP1;ratioP1;P1;durP2;ratioP2;P2;SDS_P1;SDS_P2;PMS_P1;PMS_P2;Temp;Humidity;BMP_temperature;BMP_pressure;BME280_temperature;BME280_humidity;BME280_pressure;Samples;Min_cycle;Max_cycle;Signal;HPM_P1;HPM_P2
2022/09/03 00:01:30;;;;;;;12.70;7.95;;;;;;;13.92;84.75;99929.37;1726102;83;21061;-70
2022/09/03 00:04:01;;;;;;;10.45;8.23;;;;;;;13.87;84.88;99925.27;1725601;83;20973;-70
2022/09/03 00:06:32;;;;;;;11.30;7.80;;;;;;;13.76;85.09;99927.95;1725820;82;21013;-70
2022/09/03 00:09:20;;;;;;;8.70;7.47;;;;;;;13.64;85.86;99915.89;1726112;83;21002;-69
2022/09/03 00:12:12;;;;;;;10.03;8.63;;;;;;;13.58;85.95;99925.35;1726081;82;21202;-70
2022/09/03 00:15:06;;;;;;;9.85;7.50;;;;;;;13.52;85.93;99925.16;1726274;83;20930;-70
2022/09/03 00:17:40;;;;;;;9.17;6.80;;;;;;;13.48;85.72;99926.22;1726293;83;20981;-70
2022/09/03 00:20:24;;;;;;;10.72;7.42;;;;;;;13.43;85.69;99922.50;1726375;83;21360;-71
2022/09/03 00:22:53;;;;;;;9.63;6.97;;;;;;;13.42;85.93;99926.03;1721984;83;20969;-71
2022/09/03 00:25:44;;;;;;;10.32;7.47;;;;;;;13.42;85.97;99929.95;1726021;81;21110;-71
2022/09/03 00:28:17;;;;;;;13.10;8.40;;;;;;;13.43;86.06;99928.19;1726038;83;20962;-71
2022/09/03 00:30:45;;;;;;;;;;;;;;;13.39;85.64;99919.63;1720252;83;21533;-71
2022/09/03 00:33:20;;;;;;;11.33;8.15;;;;;;;13.42;85.89;99932.56;1689893;83;20196;-71
2022/09/03 00:36:08;;;;;;;10.58;8.00;;;;;;;13.41;86.44;99929.56;1716068;83;21061;-71
2022/09/03 00:38:35;;;;;;;10.25;7.45;;;;;;;13.40;86.66;99928.32;1718386;83;21302;-70
2022/09/03 00:41:19;;;;;;;9.95;7.62;;;;;;;13.41;86.86;99931.33;1666931;83;21559;-72
2022/09/03 00:44:07;;;;;;;12.07;8.03;;;;;;;13.42;86.39;99935.17;1718689;82;21013;-71
2022/09/03 00:47:09;;;;;;;9.10;7.47;;;;;;;13.42;85.28;99940.86;1718671;83;21053;-70
2022/09/03 00:50:06;;;;;;;10.03;7.65;;;;;;;13.41;85.10;99948.31;1700211;83;21077;-71
2022/09/03 00:53:10;;;;;;;10.78;8.03;;;;;;;13.41;85.42;99953.08;1718490;83;21253;-71
2022/09/03 00:55:57;;;;;;;8.53;7.00;;;;;;;13.42;86.53;99956.54;1718490;83;21561;-71
2022/09/03 00:58:47;;;;;;;10.88;6.40;;;;;;;13.39;84.89;99957.52;1718894;83;21470;-71
2022/09/03 01:01:20;;;;;;;13.43;7.67;;;;;;;13.36;84.80;99959.00;1718366;83;21005;-70
2022/09/03 01:04:05;;;;;;;13.65;8.03;;;;;;;13.35;85.87;99956.45;1719016;83;21536;-70
2022/09/03 01:06:52;;;;;;;10.05;7.30;;;;;;;13.35;86.25;99958.60;1718460;83;21177;-70
2022/09/03 01:09:36;;;;;;;10.88;7.30;;;;;;;13.35;86.54;99965.59;1718402;83;20942;-70
2022/09/03 01:12:20;;;;;;;9.85;7.00;;;;;;;13.34;87.31;99962.59;1718501;83;21319;-71
2022/09/03 01:15:11;;;;;;;9.80;7.35;;;;;;;13.32;87.96;99965.27;1717663;83;20954;-71
2022/09/03 01:18:02;;;;;;;12.65;7.55;;;;;;;13.31;88.39;99962.72;1718533;83;20998;-71
2022/09/03 01:21:14;;;;;;;8.33;7.15;;;;;;;13.28;89.07;99961.55;1685787;83;21374;-72
2022/09/03 01:23:59;;;;;;;12.47;8.38;;;;;;;13.25;89.93;99967.75;1718363;83;20978;-70
2022/09/03 01:26:37;;;;;;;9.58;7.45;;;;;;;13.24;90.26;99971.28;1718240;83;21470;-70
2022/09/03 01:29:25;;;;;;;9.78;6.97;;;;;;;13.22;90.01;99960.50;1715278;81;21268;-71
2022/09/03 01:32:04;;;;;;;8.50;7.58;;;;;;;13.20;89.91;99962.33;1746294;81;20918;-70
2022/09/03 01:34:36;;;;;;;11.08;7.92;;;;;;;13.20;90.33;99959.72;1742317;82;22201;-71
2022/09/03 01:37:34;;;;;;;9.68;7.80;;;;;;;13.19;90.58;99964.58;1724815;82;20921;-71
2022/09/03 01:40:49;;;;;;;11.40;6.83;;;;;;;13.17;90.79;99965.95;1746215;82;20938;-70
2022/09/03 01:43:36;;;;;;;9.00;6.95;;;;;;;13.16;90.68;99961.65;1745945;82;21017;-71
2022/09/03 01:46:20;;;;;;;10.18;6.53;;;;;;;13.11;90.96;99953.97;1745879;82;21064;-71
2022/09/03 01:49:27;;;;;;;9.48;7.15;;;;;;;13.07;91.54;99960.23;1745975;82;21249;-68
2022/09/03 01:52:03;;;;;;;8.38;6.33;;;;;;;13.03;91.97;99962.59;1745793;82;20996;-69
2022/09/03 01:54:50;;;;;;;7.40;6.53;;;;;;;13.00;92.21;99961.41;1738211;82;20973;-68
2022/09/03 01:57:43;;;;;;;8.33;6.42;;;;;;;12.97;93.08;99960.27;1746326;82;21016;-68
2022/09/03 02:00:21;;;;;;;7.35;6.17;;;;;;;12.94;93.24;99961.70;1746024;82;20969;-69
2022/09/03 02:02:50;;;;;;;11.53;7.28;;;;;;;12.90;93.04;99964.50;1745882;82;21226;-69
2022/09/03 02:05:23;;;;;;;9.13;7.10;;;;;;;12.86;93.61;99965.55;1745681;82;20969;-69
2022/09/03 02:08:05;;;;;;;8.08;6.72;;;;;;;12.83;93.80;99967.82;1745988;81;20965;-69
2022/09/03 02:10:46;;;;;;;13.98;6.60;;;;;;;12.76;93.63;99971.63;1744649;82;20961;-69
2022/09/03 02:13:38;;;;;;;9.28;6.40;;;;;;;12.70;94.17;99968.81;1745191;82;21021;-69
2022/09/03 02:16:14;;;;;;;9.85;6.85;;;;;;;12.66;94.62;99967.23;1745321;82;21187;-69
2022/09/03 02:18:47;;;;;;;8.23;6.42;;;;;;;12.65;95.49;99968.60;1746117;82;20977;-69
2022/09/03 02:21:19;;;;;;;8.90;6.10;;;;;;;12.63;95.87;99971.73;1745583;82;21471;-69
2022/09/03 02:23:47;;;;;;;8.48;5.85;;;;;;;12.62;96.14;99970.03;1746201;82;20981;-69
2022/09/03 02:26:17;;;;;;;13.10;6.28;;;;;;;12.60;96.15;99971.85;1745889;82;21132;-69
2022/09/03 02:28:44;;;;;;;9.25;5.60;;;;;;;12.60;96.39;99966.63;1725894;82;21248;-69
2022/09/03 02:31:10;;;;;;;7.42;5.75;;;;;;;12.59;96.21;99963.17;1745856;81;21438;-69
2022/09/03 02:33:40;;;;;;;12.40;6.12;;;;;;;12.60;95.79;99968.78;1745893;82;20933;-69
2022/09/03 02:36:10;;;;;;;9.15;5.47;;;;;;;12.56;95.47;99969.00;1744975;82;20921;-69
2022/09/03 02:38:37;;;;;;;6.70;4.70;;;;;;;12.50;95.54;99970.55;1745958;82;21449;-69
2022/09/03 02:41:04;;;;;;;8.20;6.08;;;;;;;12.46;96.29;99968.52;1746389;82;22052;-69
2022/09/03 02:43:51;;;;;;;8.75;5.37;;;;;;;12.48;97.13;99971.07;1745734;82;20973;-69
2022/09/03 02:46:26;;;;;;;10.58;6.12;;;;;;;12.50;97.65;99967.48;1745429;82;20969;-69
2022/09/03 02:48:53;;;;;;;8.50;5.92;;;;;;;12.51;98.15;99962.66;1745837;82;21020;-69
2022/09/03 02:51:20;;;;;;;6.35;5.45;;;;;;;12.51;98.07;99964.42;1746145;82;21425;-69
2022/09/03 02:53:46;;;;;;;9.28;5.85;;;;;;;12.49;97.82;99960.57;1745898;82;21242;-69
2022/09/03 02:56:13;;;;;;;11.75;6.03;;;;;;;12.50;97.87;99962.73;1745828;82;21028;-69
2022/09/03 02:58:40;;;;;;;11.00;6.75;;;;;;;12.47;98.10;99951.95;1745865;82;20934;-69
2022/09/03 03:01:07;;;;;;;8.43;6.17;;;;;;;12.46;98.12;99954.63;1745577;82;21397;-69
2022/09/03 03:03:33;;;;;;;6.97;5.80;;;;;;;12.43;97.69;99953.84;1745783;82;21024;-69
2022/09/03 03:06:02;;;;;;;9.25;5.83;;;;;;;12.42;97.71;99955.20;1745811;82;21133;-69
2022/09/03 03:08:31;;;;;;;8.10;5.78;;;;;;;12.42;97.73;99958.66;1745739;82;20926;-69
2022/09/03 03:10:59;;;;;;;5.62;5.05;;;;;;;12.41;97.83;99958.27;1745783;82;20982;-69
2022/09/03 03:13:29;;;;;;;8.78;5.45;;;;;;;12.40;97.84;99955.27;1744402;82;20933;-69
2022/09/03 03:15:58;;;;;;;8.08;5.33;;;;;;;12.37;97.79;99950.66;1745381;82;21545;-69
2022/09/03 03:18:27;;;;;;;6.60;5.17;;;;;;;12.34;97.87;99952.08;1745544;82;21137;-69
2022/09/03 03:20:53;;;;;;;6.05;5.28;;;;;;;12.31;97.89;99954.36;1723464;82;21071;-69
2022/09/03 03:23:20;;;;;;;6.95;5.28;;;;;;;12.28;98.04;99956.23;1745896;82;20926;-69
2022/09/03 03:25:47;;;;;;;5.83;4.85;;;;;;;12.25;98.06;99948.53;1745768;82;21434;-69
2022/09/03 03:28:14;;;;;;;4.90;4.37;;;;;;;12.24;98.15;99952.05;1745607;82;21080;-69
2022/09/03 03:30:41;;;;;;;6.65;4.72;;;;;;;12.24;98.13;99956.80;1745615;82;21141;-69
2022/09/03 03:33:09;;;;;;;5.78;5.00;;;;;;;12.22;98.03;99957.32;1740799;82;20961;-69
2022/09/03 03:35:35;;;;;;;8.23;5.20;;;;;;;12.19;98.32;99955.31;1740758;81;20942;-69
2022/09/03 03:38:03;;;;;;;5.78;4.75;;;;;;;12.14;98.55;99941.16;1745670;82;20981;-69
2022/09/03 03:40:30;;;;;;;7.60;5.00;;;;;;;12.13;99.01;99947.28;1745954;82;21004;-70
2022/09/03 03:42:57;;;;;;;7.45;5.03;;;;;;;12.15;99.19;99949.83;1745633;82;21202;-69
2022/09/03 03:45:24;;;;;;;6.80;4.87;;;;;;;12.15;99.50;99942.00;1745651;82;20953;-70
2022/09/03 03:47:51;;;;;;;6.00;4.97;;;;;;;12.16;99.60;99943.25;1745853;82;20933;-69
2022/09/03 03:50:18;;;;;;;6.45;5.12;;;;;;;12.17;99.57;99942.80;1745782;82;20973;-69
2022/09/03 03:52:45;;;;;;;7.53;5.33;;;;;;;12.18;99.59;99949.70;1745737;82;20965;-69
2022/09/03 03:55:11;;;;;;;6.50;4.87;;;;;;;12.18;99.98;99942.73;1745743;82;22047;-69
2022/09/03 03:57:39;;;;;;;5.33;4.58;;;;;;;12.22;100.00;99940.83;1745595;82;21386;-69
2022/09/03 04:00:07;;;;;;;7.95;4.90;;;;;;;12.25;100.00;99947.22;1745740;82;21028;-69
2022/09/03 04:02:36;;;;;;;9.08;4.78;;;;;;;12.26;99.87;99941.95;1724741;82;20985;-69
2022/09/03 04:05:05;;;;;;;6.10;4.83;;;;;;;12.22;100.00;99934.30;1745606;82;21024;-70
2022/09/03 04:07:32;;;;;;;5.67;4.28;;;;;;;12.21;100.00;99932.61;1745755;82;21150;-69
2022/09/03 04:09:59;;;;;;;5.90;4.50;;;;;;;12.21;100.00;99927.39;1745791;82;20922;-69
2022/09/03 04:12:26;;;;;;;7.45;4.37;;;;;;;12.20;100.00;99928.30;1724592;82;20981;-69
2022/09/03 04:14:53;;;;;;;5.30;3.85;;;;;;;12.19;100.00;99931.36;1745443;82;21024;-69
2022/09/03 04:17:20;;;;;;;5.60;4.58;;;;;;;12.19;100.00;99931.85;1745882;82;20930;-69
2022/09/03 04:19:47;;;;;;;5.30;3.83;;;;;;;12.18;99.57;99936.67;1745362;82;21156;-69
2022/09/03 04:22:14;;;;;;;5.62;4.12;;;;;;;12.18;99.63;99936.67;1745863;82;21008;-70
2022/09/03 04:24:41;;;;;;;6.17;4.28;;;;;;;12.19;99.75;99943.09;1745265;82;21418;-69
2022/09/03 04:27:08;;;;;;;5.30;4.05;;;;;;;12.21;99.35;99945.19;1745494;82;20950;-68
2022/09/03 04:29:36;;;;;;;5.80;3.83;;;;;;;12.24;99.13;99941.16;1743684;82;21037;-69
2022/09/03 04:34:48;;;;;;;5.10;3.98;;;;;;;12.26;98.88;99939.34;1746476;81;20922;-69
2022/09/03 04:37:18;;;;;;;4.70;3.70;;;;;;;12.28;98.75;99934.91;1745831;82;20985;-69
2022/09/03 04:39:43;;;;;;;4.72;3.98;;;;;;;12.30;98.86;99933.55;1745678;82;21017;-69
2022/09/03 04:42:10;;;;;;;5.50;4.17;;;;;;;12.35;98.96;99936.83;1745295;82;20977;-69
2022/09/03 04:44:37;;;;;;;7.10;4.10;;;;;;;12.42;98.85;99939.55;1745592;82;21702;-69
2022/09/03 04:47:04;;;;;;;5.15;3.60;;;;;;;12.49;98.49;99941.46;1745674;82;21079;-69
2022/09/03 04:49:31;;;;;;;5.95;4.22;;;;;;;12.56;98.30;99941.16;1745559;82;21383;-69
2022/09/03 04:51:58;;;;;;;6.20;4.35;;;;;;;12.64;97.94;99931.67;1745735;82;20918;-70
2022/09/03 04:54:25;;;;;;;6.00;4.47;;;;;;;12.66;97.87;99928.55;1745844;82;20981;-70
2022/09/03 04:56:54;;;;;;;5.47;3.72;;;;;;;12.72;97.67;99937.43;1745758;82;21282;-69
2022/09/03 04:59:20;;;;;;;6.10;3.90;;;;;;;12.74;97.25;99939.06;1745968;82;20969;-70
2022/09/03 05:01:47;;;;;;;4.58;3.75;;;;;;;12.74;96.94;99942.13;1745730;82;20938;-69
2022/09/03 05:04:13;;;;;;;5.65;3.87;;;;;;;12.74;96.73;99937.76;1745894;82;21517;-69
2022/09/03 05:06:42;;;;;;;4.87;4.17;;;;;;;12.73;96.59;99932.60;1724899;82;20938;-69
2022/09/03 05:09:09;;;;;;;6.37;3.83;;;;;;;12.73;96.90;99932.60;1744706;82;21116;-69
2022/09/03 05:11:36;;;;;;;10.05;4.20;;;;;;;12.74;97.51;99933.84;1745776;82;21014;-69
2022/09/03 05:14:05;;;;;;;4.17;3.77;;;;;;;12.81;97.94;99943.55;1744818;82;21508;-69
2022/09/03 05:16:31;;;;;;;5.35;3.83;;;;;;;12.89;97.88;99931.48;1745631;82;21402;-69
2022/09/03 05:18:59;;;;;;;3.83;3.42;;;;;;;12.95;97.91;99937.74;1744049;82;20918;-69
2022/09/03 05:21:27;;;;;;;5.60;3.90;;;;;;;13.04;97.80;99935.56;1745742;82;21142;-69
2022/09/03 05:23:54;;;;;;;5.12;4.20;;;;;;;13.14;97.91;99942.55;1745695;82;21017;-69
2022/09/03 05:26:26;;;;;;;5.83;3.62;;;;;;;13.24;97.97;99928.17;1745656;82;20930;-70
2022/09/03 05:28:57;;;;;;;4.53;3.58;;;;;;;13.35;97.38;99923.79;1746134;82;21093;-70
2022/09/03 05:31:26;;;;;;;4.90;3.52;;;;;;;13.42;96.83;99931.26;1745780;81;21015;-70
2022/09/03 05:33:59;;;;;;;4.53;3.47;;;;;;;13.48;96.36;99937.98;1745858;82;21785;-69
2022/09/03 05:36:29;;;;;;;3.62;3.25;;;;;;;13.53;96.06;99936.02;1745930;82;20961;-69
2022/09/03 05:38:57;;;;;;;5.47;3.02;;;;;;;13.59;95.09;99937.50;1741071;82;20965;-70
2022/09/03 05:41:24;;;;;;;4.45;3.17;;;;;;;13.60;94.28;99931.33;1722205;82;20949;-69
2022/09/03 05:43:54;;;;;;;4.47;3.40;;;;;;;13.61;94.57;99933.02;1746374;82;21394;-69
2022/09/03 05:46:30;;;;;;;3.95;3.45;;;;;;;13.63;94.46;99929.88;1746173;82;21147;-69
2022/09/03 05:49:03;;;;;;;5.92;3.30;;;;;;;13.63;93.88;99932.03;1724786;82;48279;-69
2022/09/03 05:51:30;;;;;;;3.92;2.60;;;;;;;13.68;93.95;99939.21;1745777;82;20976;-69
2022/09/03 05:53:57;;;;;;;2.80;2.58;;;;;;;13.73;93.67;99929.86;1746054;82;20937;-69
2022/09/03 05:56:26;;;;;;;3.40;2.47;;;;;;;13.77;93.33;99932.27;1745833;82;21012;-69
2022/09/03 05:58:55;;;;;;;3.83;3.08;;;;;;;13.80;93.06;99933.39;1745827;82;21101;-69
2022/09/03 06:01:31;;;;;;;3.65;3.05;;;;;;;13.86;93.38;99939.27;1745775;82;20914;-69
2022/09/03 06:04:03;;;;;;;3.95;2.98;;;;;;;13.92;92.42;99946.83;1745791;82;20945;-70
2022/09/03 06:06:33;;;;;;;3.77;2.47;;;;;;;13.97;92.33;99939.16;1746005;82;20930;-68
2022/09/03 06:09:03;;;;;;;4.58;2.75;;;;;;;14.01;91.98;99936.76;1745923;82;20929;-68
2022/09/03 06:11:34;;;;;;;4.35;3.00;;;;;;;14.07;91.49;99942.16;1745940;82;21806;-69
2022/09/03 06:14:06;;;;;;;3.90;2.95;;;;;;;14.22;91.84;99935.33;1745852;82;20973;-69
2022/09/03 06:16:38;;;;;;;3.85;2.90;;;;;;;14.22;91.84;99935.33;1745792;82;21001;-69
2022/09/03 06:19:09;;;;;;;3.25;2.60;;;;;;;14.41;91.56;99934.84;1745449;82;21055;-69
2022/09/03 06:21:41;;;;;;;5.17;2.60;;;;;;;14.58;90.12;99928.33;1745883;82;20985;-69
2022/09/03 06:24:06;;;;;;;2.87;2.10;;;;;;;14.93;86.42;99928.28;1724747;82;21154;-68
2022/09/03 06:26:32;;;;;;;3.02;2.27;;;;;;;14.93;86.42;99928.28;1745680;82;21426;-69
2022/09/03 06:29:00;;;;;;;4.67;2.50;;;;;;;15.09;85.41;99936.56;1745947;82;21410;-69
2022/09/03 06:31:27;;;;;;;5.80;2.17;;;;;;;15.24;83.92;99936.20;1745435;82;21002;-69
2022/09/03 06:33:54;;;;;;;3.33;2.42;;;;;;;15.32;81.78;99937.97;1745891;82;21032;-69
2022/09/03 06:36:25;;;;;;;3.92;2.60;;;;;;;15.39;80.02;99937.16;1745850;82;21145;-69
2022/09/03 06:38:54;;;;;;;2.98;2.30;;;;;;;15.39;80.40;99939.78;1745918;82;21430;-69
2022/09/03 06:41:25;;;;;;;4.60;2.25;;;;;;;15.41;79.37;99940.08;1725866;82;20978;-69
2022/09/03 06:43:58;;;;;;;3.27;2.52;;;;;;;15.41;79.05;99933.99;1728198;82;20949;-69
2022/09/03 06:46:24;;;;;;;3.95;2.17;;;;;;;15.39;78.62;99932.77;1745908;82;20981;-69
2022/09/03 06:48:52;;;;;;;3.35;2.35;;;;;;;15.40;78.95;99941.47;1745789;82;21116;-69
2022/09/03 06:51:21;;;;;;;2.98;2.70;;;;;;;15.43;77.51;99940.00;1745784;82;21087;-69
2022/09/03 06:53:50;;;;;;;3.50;2.20;;;;;;;15.50;77.87;99940.06;1745866;82;21029;-69
2022/09/03 06:56:25;;;;;;;4.90;2.33;;;;;;;15.65;77.84;99949.74;1745860;82;21041;-68
2022/09/03 06:58:56;;;;;;;4.92;2.37;;;;;;;15.79;76.87;99947.66;1745779;82;20973;-68
2022/09/03 07:01:24;;;;;;;4.75;2.27;;;;;;;15.90;76.89;99949.24;1746216;82;21133;-69
2022/09/03 07:03:59;;;;;;;2.45;2.05;;;;;;;16.10;77.94;99945.50;1745712;82;20921;-69
2022/09/03 07:06:28;;;;;;;4.87;2.40;;;;;;;16.29;77.68;99937.42;1745744;82;20941;-69
2022/09/03 07:08:56;;;;;;;2.90;2.50;;;;;;;16.50;76.92;99948.00;1745848;82;21005;-69
2022/09/03 07:11:28;;;;;;;2.42;2.22;;;;;;;16.64;75.79;99944.59;1745859;82;21024;-69
2022/09/03 07:13:55;;;;;;;5.72;2.67;;;;;;;16.72;74.75;99947.16;1745759;82;21107;-69
2022/09/03 07:16:34;;;;;;;3.90;3.00;;;;;;;16.77;73.55;99948.20;1745943;82;20918;-69
2022/09/03 07:19:03;;;;;;;2.92;2.62;;;;;;;16.80;73.73;99948.00;1745745;82;21422;-70
2022/09/03 07:21:35;;;;;;;3.72;2.72;;;;;;;16.83;72.50;99946.03;1745735;82;20945;-69
2022/09/03 07:24:05;;;;;;;3.50;2.55;;;;;;;16.80;72.71;99947.53;1745909;82;21021;-69
2022/09/03 07:26:34;;;;;;;4.05;2.58;;;;;;;16.84;72.99;99949.05;1745666;82;21301;-69
2022/09/03 07:29:03;;;;;;;4.80;2.33;;;;;;;16.86;72.39;99949.80;1745715;82;20973;-69
2022/09/03 07:31:32;;;;;;;3.45;2.60;;;;;;;16.92;72.42;99938.09;1740315;82;21093;-69
2022/09/03 07:34:03;;;;;;;3.17;2.70;;;;;;;16.99;71.26;99940.70;1713113;83;21017;-70
2022/09/03 07:36:30;;;;;;;6.55;2.62;;;;;;;16.99;70.93;99945.11;1712705;83;20971;-69
2022/09/03 07:38:58;;;;;;;4.12;2.30;;;;;;;16.99;69.62;99945.11;1712768;83;21170;-69
2022/09/03 07:41:25;;;;;;;5.10;2.58;;;;;;;17.07;68.52;99942.88;1712635;83;21077;-69
2022/09/03 07:43:52;;;;;;;2.67;2.45;;;;;;;17.13;66.60;99951.72;1687591;83;21017;-69
2022/09/03 07:46:22;;;;;;;4.47;2.60;;;;;;;17.14;67.49;99946.84;1713238;83;20982;-69
2022/09/03 07:48:54;;;;;;;4.15;2.45;;;;;;;17.20;68.06;99941.19;1712737;83;21026;-68
2022/09/03 07:51:25;;;;;;;4.53;2.90;;;;;;;17.33;66.90;99942.61;1712246;82;21157;-68
2022/09/03 07:53:58;;;;;;;4.72;2.90;;;;;;;17.38;66.23;99940.55;1712818;83;21454;-69
2022/09/03 07:56:26;;;;;;;3.52;2.47;;;;;;;17.40;66.30;99939.95;1712651;82;21497;-70
2022/09/03 07:58:56;;;;;;;4.97;2.42;;;;;;;17.45;63.77;99943.15;1712599;83;20982;-69
2022/09/03 08:01:24;;;;;;;3.15;2.50;;;;;;;17.52;63.78;99947.95;1712716;83;20978;-69
2022/09/03 08:03:52;;;;;;;3.45;2.42;;;;;;;17.58;63.55;99945.41;1712713;83;21258;-69
2022/09/03 08:06:21;;;;;;;3.20;2.12;;;;;;;17.54;62.26;99938.65;1712644;83;21006;-70
2022/09/03 08:08:48;;;;;;;3.95;2.27;;;;;;;17.55;62.62;99937.70;1712843;83;21021;-69
2022/09/03 08:11:18;;;;;;;2.58;2.27;;;;;;;17.62;62.41;99936.36;1712550;83;21070;-70
2022/09/03 08:14:01;;;;;;;2.72;2.00;;;;;;;17.76;61.12;99935.08;1712661;83;21561;-70
2022/09/03 08:16:32;;;;;;;2.92;2.12;;;;;;;17.87;61.27;99941.80;1711600;83;20890;-70
2022/09/03 08:18:59;;;;;;;3.42;2.02;;;;;;;17.94;58.75;99933.05;1712252;83;20962;-69
2022/09/03 08:21:26;;;;;;;3.30;2.20;;;;;;;17.94;58.13;99930.89;1712542;83;21061;-70
2022/09/03 08:24:01;;;;;;;4.55;2.00;;;;;;;17.92;57.67;99927.51;1712534;83;20962;-69
2022/09/03 08:26:30;;;;;;;4.35;1.85;;;;;;;17.97;59.24;99932.02;1684853;83;21022;-69
2022/09/03 08:28:58;;;;;;;4.58;2.33;;;;;;;18.09;57.55;99929.89;1712436;82;21490;-69
2022/09/03 08:31:26;;;;;;;5.47;2.20;;;;;;;18.19;57.60;99923.06;1712785;82;21502;-69
2022/09/03 08:33:55;;;;;;;5.20;2.27;;;;;;;18.37;57.24;99928.46;1713142;83;21439;-69
2022/09/03 08:36:28;;;;;;;3.47;2.10;;;;;;;18.64;56.35;99919.67;1712963;83;21025;-69
2022/09/03 08:38:56;;;;;;;4.35;2.10;;;;;;;18.88;55.21;99916.22;1712808;82;21021;-69
2022/09/03 08:42:07;;;;;;;4.03;2.12;;;;;;;19.11;53.74;99923.86;1712686;83;21212;-69
2022/09/03 08:44:47;;;;;;;3.83;2.52;;;;;;;19.24;51.95;99917.25;1712586;83;22092;-69
2022/09/03 08:47:33;;;;;;;2.70;2.00;;;;;;;19.38;52.41;99922.42;1712671;83;21001;-68
2022/09/03 08:50:18;;;;;;;4.25;2.25;;;;;;;19.46;51.95;99921.86;1712628;83;21048;-68
2022/09/03 08:52:59;;;;;;;3.60;2.50;;;;;;;19.42;50.22;99917.74;1711238;83;26903;-69
2022/09/03 08:55:29;;;;;;;2.10;1.80;;;;;;;19.32;51.33;99917.56;1709174;83;21501;-69
2022/09/03 08:58:06;;;;;;;4.85;2.00;;;;;;;19.41;50.75;99912.94;1706880;83;21062;-70
2022/09/03 09:01:10;;;;;;;3.08;2.12;;;;;;;19.55;50.32;99915.50;1712737;83;20981;-70
2022/09/03 09:03:42;;;;;;;2.47;1.95;;;;;;;19.51;47.80;99915.34;1712621;83;21073;-69
2022/09/03 09:06:23;;;;;;;4.27;1.90;;;;;;;19.23;48.99;99915.56;1685323;83;21439;-69
2022/09/03 09:08:59;;;;;;;2.10;1.67;;;;;;;19.17;49.07;99922.13;1712909;83;21268;-69
2022/09/03 09:11:50;;;;;;;4.65;1.92;;;;;;;19.19;48.04;99916.72;1712361;83;21480;-70
2022/09/03 09:14:32;;;;;;;1.80;1.40;;;;;;;19.28;47.39;99924.00;1712754;83;21061;-70
2022/09/03 09:17:19;;;;;;;2.67;1.55;;;;;;;19.25;45.97;99922.41;1712828;83;21013;-69
2022/09/03 09:20:25;;;;;;;3.83;1.35;;;;;;;19.12;47.37;99918.11;1712839;83;21093;-70
2022/09/03 09:22:57;;;;;;;3.20;1.67;;;;;;;19.10;45.86;99912.10;1712772;83;21415;-70
2022/09/03 09:25:25;;;;;;;2.90;1.50;;;;;;;19.18;46.10;99911.92;1712993;83;21030;-70
2022/09/03 09:27:59;;;;;;;2.10;1.25;;;;;;;19.28;45.25;99912.13;1712732;83;20982;-70
2022/09/03 09:30:27;;;;;;;1.30;1.20;;;;;;;19.34;44.31;99918.78;1712501;83;21573;-70
2022/09/03 09:32:55;;;;;;;1.40;1.07;;;;;;;19.30;44.52;99914.66;1709941;81;20959;-69
2022/09/03 09:35:22;;;;;;;2.98;1.22;;;;;;;19.28;43.54;99924.00;1705642;83;21168;-70
2022/09/03 09:37:59;;;;;;;2.10;1.57;;;;;;;19.24;44.55;99920.73;1705226;83;20966;-70
2022/09/03 09:40:35;;;;;;;2.00;1.30;;;;;;;19.30;44.45;99928.69;1704392;84;21022;-70
2022/09/03 09:43:18;;;;;;;4.28;1.45;;;;;;;19.35;44.08;99919.14;1704904;84;21424;-70
2022/09/03 09:45:48;;;;;;;2.45;1.27;;;;;;;19.34;43.62;99918.78;1704898;84;21022;-69
2022/09/03 09:48:33;;;;;;;2.35;1.65;;;;;;;19.28;44.57;99914.30;1705089;83;21904;-69
2022/09/03 09:51:10;;;;;;;2.42;1.70;;;;;;;19.30;43.84;99916.83;1704889;83;20950;-69
2022/09/03 09:53:39;;;;;;;1.65;1.37;;;;;;;19.44;44.85;99927.72;1705057;84;21022;-69
2022/09/03 09:56:07;;;;;;;1.47;1.20;;;;;;;19.51;42.43;99919.77;1704982;83;20994;-69
2022/09/03 09:58:34;;;;;;;1.65;1.40;;;;;;;19.44;42.56;99917.16;1685221;84;20974;-69
2022/09/03 10:01:11;;;;;;;1.65;1.20;;;;;;;19.45;41.90;99914.42;1685029;84;21257;-69
2022/09/03 10:03:35;;;;;;;2.20;1.15;;;;;;;19.49;41.54;99922.48;1701258;84;21057;-68
2022/09/03 10:09:10;;;;;;;2.40;1.60;;;;;;;19.76;42.93;99914.91;1704724;83;21458;-69
2022/09/03 10:11:40;;;;;;;1.72;1.60;;;;;;;19.86;42.63;99912.80;1703971;84;21486;-69
2022/09/03 10:14:12;;;;;;;5.40;2.05;;;;;;;19.98;42.55;99903.63;1704822;84;21095;-70
2022/09/03 10:16:47;;;;;;;1.82;1.55;;;;;;;20.08;42.38;99904.63;1703148;83;21010;-70
2022/09/03 10:19:18;;;;;;;2.55;1.20;;;;;;;20.23;42.98;99908.29;1704775;84;20970;-70
2022/09/03 10:21:59;;;;;;;1.70;1.60;;;;;;;20.32;41.65;99903.29;1705144;84;21014;-70
2022/09/03 10:24:53;;;;;;;2.45;1.52;;;;;;;20.26;42.18;99901.46;1704910;82;21026;-70
2022/09/03 10:27:20;;;;;;;1.90;1.50;;;;;;;20.18;42.18;99889.80;1704966;84;21161;-70
2022/09/03 10:29:49;;;;;;;2.72;1.72;;;;;;;20.10;41.37;99889.04;1705197;84;21006;-70
2022/09/03 10:32:48;;;;;;;1.92;1.50;;;;;;;20.00;40.91;99880.09;1705037;83;21582;-71
2022/09/03 10:35:30;;;;;;;2.90;1.70;;;;;;;19.90;41.80;99869.86;1705049;82;21585;-70
2022/09/03 10:38:23;;;;;;;2.90;1.45;;;;;;;19.88;42.27;99878.37;1702924;84;21017;-70
2022/09/03 10:41:02;;;;;;;3.98;1.80;;;;;;;19.97;41.03;99883.47;1704397;83;21233;-70
2022/09/03 10:43:40;;;;;;;2.77;1.40;;;;;;;20.04;41.04;99860.91;1704859;84;20967;-70
2022/09/03 10:46:22;;;;;;;3.12;1.62;;;;;;;20.04;40.70;99863.08;1702375;84;21533;-70
2022/09/03 10:49:15;;;;;;;2.37;1.50;;;;;;;20.07;41.04;99868.14;1705457;84;21030;-70
2022/09/03 10:51:45;;;;;;;2.80;1.70;;;;;;;20.25;40.00;99869.88;1705324;84;21038;-70
2022/09/03 10:54:38;;;;;;;2.10;1.77;;;;;;;20.39;40.78;99871.02;1705013;84;21143;-70
2022/09/03 10:57:52;;;;;;;2.02;1.45;;;;;;;20.43;40.76;99865.88;1699608;82;21045;-69
2022/09/03 11:00:21;;;;;;;2.87;1.67;;;;;;;20.46;40.80;99868.30;1705594;83;20991;-70
2022/09/03 11:03:29;;;;;;;2.10;1.45;;;;;;;20.46;40.00;99867.45;1705292;84;21522;-70
2022/09/03 11:06:08;;;;;;;3.62;1.50;;;;;;;20.47;39.13;99861.20;1704745;84;21143;-70
2022/09/03 11:09:17;;;;;;;3.02;1.52;;;;;;;20.52;38.95;99864.34;1705042;84;21121;-69
2022/09/03 11:11:48;;;;;;;1.60;1.50;;;;;;;20.60;40.02;99853.53;1695046;84;21105;-69
2022/09/03 11:14:21;;;;;;;1.32;1.22;;;;;;;20.78;40.07;99861.03;1684986;84;21087;-70
2022/09/03 11:16:53;;;;;;;4.12;1.62;;;;;;;20.92;39.16;99856.83;1705011;84;21620;-70
2022/09/03 11:19:23;;;;;;;;;;;;;;;21.05;39.49;99853.58;1707741;84;20975;-70
2022/09/03 11:21:49;;;;;;;1.92;1.42;;;;;;;21.10;38.76;99853.22;1702304;84;21130;-70
2022/09/03 11:24:26;;;;;;;5.65;1.30;;;;;;;21.06;38.13;99855.73;1705010;84;21038;-70
2022/09/03 11:27:06;;;;;;;1.37;1.27;;;;;;;20.93;39.30;99855.39;1704962;84;21022;-71
2022/09/03 11:29:59;;;;;;;2.60;1.40;;;;;;;20.88;39.82;99851.41;1704949;84;21565;-71
2022/09/03 11:32:31;;;;;;;3.05;1.65;;;;;;;20.97;39.24;99849.39;1705106;84;21046;-70
2022/09/03 11:34:58;;;;;;;2.33;1.50;;;;;;;21.09;38.89;99841.80;1694434;84;21272;-70
2022/09/03 11:37:27;;;;;;;1.77;1.30;;;;;;;21.18;38.56;99849.50;1704715;84;21061;-69
2022/09/03 11:40:00;;;;;;;4.50;1.35;;;;;;;21.14;38.84;99838.80;1654354;84;21037;-70
2022/09/03 11:42:38;;;;;;;5.72;1.47;;;;;;;21.13;39.50;99839.76;1705189;84;21050;-70
2022/09/03 11:45:30;;;;;;;2.12;1.17;;;;;;;21.16;38.84;99837.72;1704922;84;21116;-70
2022/09/03 11:47:57;;;;;;;2.33;1.15;;;;;;;21.13;39.25;99832.66;1705092;83;21152;-71
2022/09/03 11:50:27;;;;;;;1.50;1.37;;;;;;;21.12;39.21;99834.11;1705148;83;21061;-69
2022/09/03 11:53:09;;;;;;;1.85;1.32;;;;;;;21.05;39.39;99839.03;1684941;84;21435;-69
2022/09/03 11:55:52;;;;;;;;;;;;;;;20.96;38.83;99833.16;1707342;84;21018;-70
2022/09/03 11:58:26;;;;;;;1.57;1.32;;;;;;;20.93;39.19;99830.27;1705135;82;20263;-70
2022/09/03 12:00:53;;;;;;;4.58;1.50;;;;;;;20.83;38.25;99831.09;1705172;82;21155;-70
2022/09/03 12:03:43;;;;;;;4.10;1.10;;;;;;;20.62;38.88;99833.13;1704967;83;21431;-70
2022/09/03 12:06:42;;;;;;;1.32;1.15;;;;;;;20.52;39.41;99831.32;1684953;84;21030;-69
2022/09/03 12:10:03;;;;;;;1.60;1.10;;;;;;;20.50;40.21;99838.04;1681765;84;20971;-69
2022/09/03 12:13:00;;;;;;;1.37;1.10;;;;;;;20.55;40.57;99829.77;1704236;83;20978;-69
2022/09/03 12:16:04;;;;;;;1.12;1.02;;;;;;;20.36;39.89;99846.16;1705406;84;21255;-69